sensor_id;sensor_type;location;lat;lon;timestamp;pressure;altitude;pressure_sealevel;temperature;humidity
35489;BME280;21602;55.670;37.578;2023-09-07T00:00:16;99657.13;;;11.25;74.45
35489;BME280;21602;55.670;37.578;2023-09-07T00:02:43;99658.19;;;11.24;74.39
35489;BME280;21602;55.670;37.578;2023-09-07T00:05:09;99658.78;;;11.26;74.56
35489;BME280;21602;55.670;37.578;2023-09-07T00:07:36;99660.41;;;11.27;74.78
35489;BME280;21602;55.670;37.578;2023-09-07T00:10:03;99655.53;;;11.24;75.64
35489;BME280;21602;55.670;37.578;2023-09-07T00:12:33;99664.81;;;11.21;75.39
35489;BME280;21602;55.670;37.578;2023-09-07T00:14:59;99657.84;;;11.20;75.95
35489;BME280;21602;55.670;37.578;2023-09-07T00:17:27;99662.47;;;11.25;75.75
35489;BME280;21602;55.670;37.578;2023-09-07T00:19:53;99666.22;;;11.24;75.73
35489;BME280;21602;55.670;37.578;2023-09-07T00:22:20;99662.84;;;11.28;76.24
35489;BME280;21602;55.670;37.578;2023-09-07T00:24:46;99658.69;;;11.33;75.85
35489;BME280;21602;55.670;37.578;2023-09-07T00:27:11;99673.91;;;11.32;75.42
35489;BME280;21602;55.670;37.578;2023-09-07T00:29:39;99680.97;;;11.26;75.94
35489;BME280;21602;55.670;37.578;2023-09-07T00:32:05;99673.28;;;11.18;75.85
35489;BME280;21602;55.670;37.578;2023-09-07T00:34:33;99679.56;;;11.12;76.17
35489;BME280;21602;55.670;37.578;2023-09-07T00:37:00;99683.28;;;11.11;76.34
35489;BME280;21602;55.670;37.578;2023-09-07T00:39:27;99678.81;;;11.05;76.67
35489;BME280;21602;55.670;37.578;2023-09-07T00:41:53;99684.19;;;11.05;76.77
35489;BME280;21602;55.670;37.578;2023-09-07T00:44:19;99689.06;;;11.08;76.64
35489;BME280;21602;55.670;37.578;2023-09-07T00:46:45;99688.72;;;11.05;76.63
35489;BME280;21602;55.670;37.578;2023-09-07T00:49:13;99687.53;;;11.00;76.94
35489;BME280;21602;55.670;37.578;2023-09-07T00:51:39;99698.91;;;10.96;77.31
35489;BME280;21602;55.670;37.578;2023-09-07T00:54:06;99687.25;;;10.90;77.41
35489;BME280;21602;55.670;37.578;2023-09-07T00:56:32;99683.41;;;10.86;77.96
35489;BME280;21602;55.670;37.578;2023-09-07T00:59:00;99689.44;;;10.82;78.61
35489;BME280;21602;55.670;37.578;2023-09-07T01:01:29;99696.44;;;10.83;78.49
35489;BME280;21602;55.670;37.578;2023-09-07T01:03:57;99695.81;;;10.81;78.55
35489;BME280;21602;55.670;37.578;2023-09-07T01:06:36;99692.44;;;10.73;79.41
35489;BME280;21602;55.670;37.578;2023-09-07T01:09:09;99703.19;;;10.67;79.55
35489;BME280;21602;55.670;37.578;2023-09-07T01:11:39;99705.06;;;10.66;80.07
35489;BME280;21602;55.670;37.578;2023-09-07T01:14:05;99710.84;;;10.63;80.17
35489;BME280;21602;55.670;37.578;2023-09-07T01:16:31;99704.91;;;10.61;80.98
35489;BME280;21602;55.670;37.578;2023-09-07T01:19:04;99701.66;;;10.59;81.12
35489;BME280;21602;55.670;37.578;2023-09-07T01:21:34;99703.59;;;10.52;81.98
35489;BME280;21602;55.670;37.578;2023-09-07T01:24:08;99715.97;;;10.46;82.59
35489;BME280;21602;55.670;37.578;2023-09-07T01:26:38;99703.59;;;10.34;83.20
35489;BME280;21602;55.670;37.578;2023-09-07T01:29:08;99705.53;;;10.27;84.56
35489;BME280;21602;55.670;37.578;2023-09-07T01:31:36;99706.19;;;10.22;83.93
35489;BME280;21602;55.670;37.578;2023-09-07T01:34:06;99711.94;;;10.19;85.02
35489;BME280;21602;55.670;37.578;2023-09-07T01:36:35;99720.63;;;10.14;85.76
35489;BME280;21602;55.670;37.578;2023-09-07T01:39:04;99714.91;;;10.11;85.40
35489;BME280;21602;55.670;37.578;2023-09-07T01:41:33;99716.97;;;10.09;85.90
35489;BME280;21602;55.670;37.578;2023-09-07T01:44:00;99712.47;;;10.09;86.02
35489;BME280;21602;55.670;37.578;2023-09-07T01:46:26;99716.41;;;10.07;86.65
35489;BME280;21602;55.670;37.578;2023-09-07T01:48:53;99707.22;;;10.03;86.98
35489;BME280;21602;55.670;37.578;2023-09-07T01:51:19;99712.88;;;10.06;87.24
35489;BME280;21602;55.670;37.578;2023-09-07T01:53:47;99739.78;;;10.05;87.64
35489;BME280;21602;55.670;37.578;2023-09-07T01:56:17;99716.22;;;10.01;87.72
35489;BME280;21602;55.670;37.578;2023-09-07T01:58:43;99723.41;;;10.01;87.86
35489;BME280;21602;55.670;37.578;2023-09-07T02:01:26;99731.41;;;10.01;88.67
35489;BME280;21602;55.670;37.578;2023-09-07T02:03:53;99728.59;;;9.96;88.61
35489;BME280;21602;55.670;37.578;2023-09-07T02:06:19;99731.06;;;9.97;89.18
35489;BME280;21602;55.670;37.578;2023-09-07T02:08:46;99724.53;;;9.93;90.57
35489;BME280;21602;55.670;37.578;2023-09-07T02:11:13;99731.09;;;9.91;90.02
35489;BME280;21602;55.670;37.578;2023-09-07T02:13:41;99741.13;;;9.95;90.37
35489;BME280;21602;55.670;37.578;2023-09-07T02:16:10;99747.50;;;9.94;89.66
35489;BME280;21602;55.670;37.578;2023-09-07T02:18:36;99734.97;;;9.95;91.31
35489;BME280;21602;55.670;37.578;2023-09-07T02:21:09;99748.91;;;9.97;91.57
35489;BME280;21602;55.670;37.578;2023-09-07T02:23:35;99749.06;;;10.02;90.95
35489;BME280;21602;55.670;37.578;2023-09-07T02:26:04;99742.53;;;9.98;92.16
35489;BME280;21602;55.670;37.578;2023-09-07T02:28:31;99752.16;;;9.99;91.31
35489;BME280;21602;55.670;37.578;2023-09-07T02:31:04;99736.06;;;9.87;92.33
35489;BME280;21602;55.670;37.578;2023-09-07T02:33:30;99739.88;;;9.73;92.25
35489;BME280;21602;55.670;37.578;2023-09-07T02:35:57;99749.38;;;9.69;92.78
35489;BME280;21602;55.670;37.578;2023-09-07T02:38:23;99739.06;;;9.72;92.03
35489;BME280;21602;55.670;37.578;2023-09-07T02:40:49;99746.91;;;9.67;92.88
35489;BME280;21602;55.670;37.578;2023-09-07T02:43:14;99747.34;;;9.64;92.62
35489;BME280;21602;55.670;37.578;2023-09-07T02:45:42;99744.94;;;9.56;93.43
35489;BME280;21602;55.670;37.578;2023-09-07T02:48:08;99759.09;;;9.57;93.59
35489;BME280;21602;55.670;37.578;2023-09-07T02:50:36;99754.97;;;9.61;93.63
35489;BME280;21602;55.670;37.578;2023-09-07T02:53:02;99769.09;;;9.61;93.63
35489;BME280;21602;55.670;37.578;2023-09-07T02:55:30;99766.66;;;9.60;93.71
35489;BME280;21602;55.670;37.578;2023-09-07T02:57:57;99764.00;;;9.60;93.97
35489;BME280;21602;55.670;37.578;2023-09-07T03:00:23;99771.34;;;9.64;93.72
35489;BME280;21602;55.670;37.578;2023-09-07T03:02:51;99771.50;;;9.69;94.16
35489;BME280;21602;55.670;37.578;2023-09-07T03:05:18;99781.69;;;9.79;94.31
35489;BME280;21602;55.670;37.578;2023-09-07T03:07:46;99776.38;;;9.72;94.13
35489;BME280;21602;55.670;37.578;2023-09-07T03:10:16;99771.50;;;9.69;93.76
35489;BME280;21602;55.670;37.578;2023-09-07T03:12:45;99774.75;;;9.71;93.58
35489;BME280;21602;55.670;37.578;2023-09-07T03:15:12;99780.09;;;9.71;94.34
35489;BME280;21602;55.670;37.578;2023-09-07T03:17:39;99775.53;;;9.79;93.75
35489;BME280;21602;55.670;37.578;2023-09-07T03:20:06;99780.41;;;9.82;93.28
35489;BME280;21602;55.670;37.578;2023-09-07T03:22:46;99781.03;;;9.84;93.55
35489;BME280;21602;55.670;37.578;2023-09-07T03:25:13;99783.69;;;9.84;93.06
35489;BME280;21602;55.670;37.578;2023-09-07T03:27:40;99791.09;;;9.82;93.25
35489;BME280;21602;55.670;37.578;2023-09-07T03:30:08;99783.97;;;9.75;93.96
35489;BME280;21602;55.670;37.578;2023-09-07T03:32:34;99798.72;;;9.78;93.50
35489;BME280;21602;55.670;37.578;2023-09-07T03:35:03;99795.59;;;9.81;93.03
35489;BME280;21602;55.670;37.578;2023-09-07T03:37:32;99789.78;;;9.91;93.48
35489;BME280;21602;55.670;37.578;2023-09-07T03:39:59;99793.63;;;9.95;92.77
35489;BME280;21602;55.670;37.578;2023-09-07T03:42:25;99793.41;;;9.96;92.54
35489;BME280;21602;55.670;37.578;2023-09-07T03:44:51;99803.88;;;9.98;92.28
35489;BME280;21602;55.670;37.578;2023-09-07T03:47:17;99792.91;;;10.06;91.95
35489;BME280;21602;55.670;37.578;2023-09-07T03:49:43;99796.59;;;10.12;91.71
35489;BME280;21602;55.670;37.578;2023-09-07T03:52:11;99810.88;;;10.17;91.08
35489;BME280;21602;55.670;37.578;2023-09-07T03:54:38;99805.50;;;10.24;91.06
35489;BME280;21602;55.670;37.578;2023-09-07T03:57:04;99814.47;;;10.30;90.58
35489;BME280;21602;55.670;37.578;2023-09-07T03:59:31;99814.06;;;10.33;90.31
35489;BME280;21602;55.670;37.578;2023-09-07T04:01:57;99813.47;;;10.31;90.51
35489;BME280;21602;55.670;37.578;2023-09-07T04:04:23;99824.34;;;10.29;90.10
35489;BME280;21602;55.670;37.578;2023-09-07T04:06:49;99828.53;;;10.18;90.05
35489;BME280;21602;55.670;37.578;2023-09-07T04:09:16;99823.34;;;10.23;90.26
35489;BME280;21602;55.670;37.578;2023-09-07T04:11:42;99822.34;;;10.24;89.65
35489;BME280;21602;55.670;37.578;2023-09-07T04:14:08;99827.41;;;10.33;89.83
35489;BME280;21602;55.670;37.578;2023-09-07T04:16:34;99825.69;;;10.38;88.95
35489;BME280;21602;55.670;37.578;2023-09-07T04:19:00;99839.84;;;10.39;88.49
35489;BME280;21602;55.670;37.578;2023-09-07T04:21:27;99836.28;;;10.27;88.82
35489;BME280;21602;55.670;37.578;2023-09-07T04:23:53;99830.66;;;10.35;88.75
35489;BME280;21602;55.670;37.578;2023-09-07T04:26:19;99845.06;;;10.52;88.95
35489;BME280;21602;55.670;37.578;2023-09-07T04:28:45;99846.66;;;10.60;87.97
35489;BME280;21602;55.670;37.578;2023-09-07T04:31:10;99845.75;;;10.66;87.40
35489;BME280;21602;55.670;37.578;2023-09-07T04:33:38;99849.50;;;10.58;86.63
35489;BME280;21602;55.670;37.578;2023-09-07T04:36:09;99862.66;;;10.60;87.07
35489;BME280;21602;55.670;37.578;2023-09-07T04:38:36;99854.28;;;10.56;86.99
35489;BME280;21602;55.670;37.578;2023-09-07T04:41:10;99863.19;;;10.68;87.56
35489;BME280;21602;55.670;37.578;2023-09-07T04:43:37;99854.72;;;10.71;86.43
35489;BME280;21602;55.670;37.578;2023-09-07T04:46:07;99868.97;;;10.84;86.79
35489;BME280;21602;55.670;37.578;2023-09-07T04:48:33;99868.75;;;10.85;85.88
35489;BME280;21602;55.670;37.578;2023-09-07T04:51:04;99864.22;;;10.86;85.60
35489;BME280;21602;55.670;37.578;2023-09-07T04:53:32;99867.03;;;10.91;84.77
35489;BME280;21602;55.670;37.578;2023-09-07T04:55:58;99873.56;;;10.95;85.06
35489;BME280;21602;55.670;37.578;2023-09-07T04:58:25;99878.34;;;10.93;85.04
35489;BME280;21602;55.670;37.578;2023-09-07T05:00:51;99882.50;;;10.89;85.08
35489;BME280;21602;55.670;37.578;2023-09-07T05:07:35;99876.63;;;10.98;84.15
35489;BME280;21602;55.670;37.578;2023-09-07T05:10:02;99877.00;;;11.02;84.11
35489;BME280;21602;55.670;37.578;2023-09-07T05:12:30;99874.31;;;11.02;83.22
35489;BME280;21602;55.670;37.578;2023-09-07T05:14:57;99874.00;;;11.10;84.05
35489;BME280;21602;55.670;37.578;2023-09-07T05:17:23;99877.28;;;11.12;82.71
35489;BME280;21602;55.670;37.578;2023-09-07T05:19:49;99882.78;;;10.99;82.43
35489;BME280;21602;55.670;37.578;2023-09-07T05:22:15;99876.91;;;11.09;83.24
35489;BME280;21602;55.670;37.578;2023-09-07T05:24:42;99878.53;;;11.28;83.35
35489;BME280;21602;55.670;37.578;2023-09-07T05:27:10;99871.66;;;11.50;82.65
35489;BME280;21602;55.670;37.578;2023-09-07T05:29:36;99883.56;;;11.66;83.08
35489;BME280;21602;55.670;37.578;2023-09-07T05:32:02;99889.72;;;11.67;81.61
35489;BME280;21602;55.670;37.578;2023-09-07T05:34:29;99879.38;;;11.59;81.48
35489;BME280;21602;55.670;37.578;2023-09-07T05:36:55;99887.88;;;11.67;82.56
35489;BME280;21602;55.670;37.578;2023-09-07T05:39:21;99880.13;;;11.77;81.60
35489;BME280;21602;55.670;37.578;2023-09-07T05:41:49;99885.41;;;11.84;80.44
35489;BME280;21602;55.670;37.578;2023-09-07T05:44:15;99885.25;;;11.79;81.34
35489;BME280;21602;55.670;37.578;2023-09-07T05:46:42;99895.00;;;11.73;80.12
35489;BME280;21602;55.670;37.578;2023-09-07T05:49:08;99881.13;;;11.65;81.88
35489;BME280;21602;55.670;37.578;2023-09-07T05:51:34;99896.34;;;11.64;80.79
35489;BME280;21602;55.670;37.578;2023-09-07T05:54:01;99876.31;;;11.55;80.90
35489;BME280;21602;55.670;37.578;2023-09-07T05:56:29;99875.38;;;11.49;80.58
35489;BME280;21602;55.670;37.578;2023-09-07T05:58:56;99885.47;;;11.47;80.69
35489;BME280;21602;55.670;37.578;2023-09-07T06:01:22;99886.22;;;11.54;81.50
35489;BME280;21602;55.670;37.578;2023-09-07T06:03:48;99895.06;;;11.67;80.49
35489;BME280;21602;55.670;37.578;2023-09-07T06:06:14;99889.16;;;11.76;80.80
35489;BME280;21602;55.670;37.578;2023-09-07T06:08:40;99897.28;;;11.88;80.32
35489;BME280;21602;55.670;37.578;2023-09-07T06:11:06;99901.72;;;11.94;79.63
35489;BME280;21602;55.670;37.578;2023-09-07T06:13:32;99896.00;;;11.91;78.96
35489;BME280;21602;55.670;37.578;2023-09-07T06:15:58;99897.72;;;11.85;79.48
35489;BME280;21602;55.670;37.578;2023-09-07T06:18:26;99904.63;;;11.93;79.38
35489;BME280;21602;55.670;37.578;2023-09-07T06:20:53;99922.19;;;12.00;78.99
35489;BME280;21602;55.670;37.578;2023-09-07T06:23:19;99916.63;;;12.02;78.42
35489;BME280;21602;55.670;37.578;2023-09-07T06:25:45;99925.34;;;11.97;78.07
35489;BME280;21602;55.670;37.578;2023-09-07T06:28:11;99915.34;;;12.04;79.05
35489;BME280;21602;55.670;37.578;2023-09-07T06:30:38;99915.59;;;12.15;78.20
35489;BME280;21602;55.670;37.578;2023-09-07T06:33:20;99934.50;;;12.32;78.26
35489;BME280;21602;55.670;37.578;2023-09-07T06:35:47;99933.00;;;12.47;77.72
35489;BME280;21602;55.670;37.578;2023-09-07T06:38:13;99928.91;;;12.56;77.77
35489;BME280;21602;55.670;37.578;2023-09-07T06:40:39;99926.59;;;12.60;77.94
35489;BME280;21602;55.670;37.578;2023-09-07T06:43:05;99931.63;;;12.68;77.32
35489;BME280;21602;55.670;37.578;2023-09-07T06:45:35;99935.56;;;12.66;75.90
35489;BME280;21602;55.670;37.578;2023-09-07T06:48:02;99941.63;;;12.61;75.73
35489;BME280;21602;55.670;37.578;2023-09-07T06:50:29;99948.56;;;12.39;75.70
35489;BME280;21602;55.670;37.578;2023-09-07T06:52:55;99914.69;;;12.33;75.05
35489;BME280;21602;55.670;37.578;2023-09-07T06:55:22;99940.16;;;12.23;74.99
35489;BME280;21602;55.670;37.578;2023-09-07T06:57:48;99933.69;;;12.31;75.15
35489;BME280;21602;55.670;37.578;2023-09-07T07:00:18;99932.66;;;12.44;74.84
35489;BME280;21602;55.670;37.578;2023-09-07T07:02:44;99940.81;;;12.49;74.60
35489;BME280;21602;55.670;37.578;2023-09-07T07:05:11;99921.13;;;12.55;73.76
35489;BME280;21602;55.670;37.578;2023-09-07T07:07:38;99931.13;;;12.71;73.96
35489;BME280;21602;55.670;37.578;2023-09-07T07:10:08;99941.38;;;12.86;73.17
35489;BME280;21602;55.670;37.578;2023-09-07T07:12:34;99940.69;;;12.91;72.60
35489;BME280;21602;55.670;37.578;2023-09-07T07:15:02;99947.59;;;12.87;72.27
35489;BME280;21602;55.670;37.578;2023-09-07T07:17:31;99940.56;;;12.62;72.33
35489;BME280;21602;55.670;37.578;2023-09-07T07:19:57;99941.84;;;12.71;72.59
35489;BME280;21602;55.670;37.578;2023-09-07T07:22:24;99946.75;;;12.86;72.56
35489;BME280;21602;55.670;37.578;2023-09-07T07:24:53;99952.81;;;12.93;71.01
35489;BME280;21602;55.670;37.578;2023-09-07T07:27:21;99956.06;;;12.95;70.60
35489;BME280;21602;55.670;37.578;2023-09-07T07:29:50;99952.91;;;12.98;70.12
35489;BME280;21602;55.670;37.578;2023-09-07T07:32:17;99964.00;;;13.02;70.26
35489;BME280;21602;55.670;37.578;2023-09-07T07:34:43;99954.19;;;13.07;70.11
35489;BME280;21602;55.670;37.578;2023-09-07T07:37:09;99950.25;;;13.22;70.70
35489;BME280;21602;55.670;37.578;2023-09-07T07:39:34;99951.97;;;13.40;70.07
35489;BME280;21602;55.670;37.578;2023-09-07T07:42:01;99957.53;;;13.50;69.43
35489;BME280;21602;55.670;37.578;2023-09-07T07:44:30;99957.63;;;13.43;67.54
35489;BME280;21602;55.670;37.578;2023-09-07T07:46:56;99948.06;;;13.47;67.52
35489;BME280;21602;55.670;37.578;2023-09-07T07:49:22;99957.03;;;13.53;65.91
35489;BME280;21602;55.670;37.578;2023-09-07T07:51:48;99964.50;;;13.51;64.17
35489;BME280;21602;55.670;37.578;2023-09-07T07:54:14;99948.06;;;13.47;64.86
35489;BME280;21602;55.670;37.578;2023-09-07T07:56:41;99951.09;;;13.51;63.26
35489;BME280;21602;55.670;37.578;2023-09-07T07:59:07;99960.56;;;13.53;63.90
35489;BME280;21602;55.670;37.578;2023-09-07T08:01:33;99948.16;;;13.64;64.55
35489;BME280;21602;55.670;37.578;2023-09-07T08:04:01;99938.16;;;13.76;63.40
35489;BME280;21602;55.670;37.578;2023-09-07T08:06:28;99948.06;;;13.88;63.52
35489;BME280;21602;55.670;37.578;2023-09-07T08:09:01;99938.47;;;13.92;62.65
35489;BME280;21602;55.670;37.578;2023-09-07T08:11:28;99934.81;;;13.98;62.02
35489;BME280;21602;55.670;37.578;2023-09-07T08:13:54;99933.84;;;14.04;61.39
35489;BME280;21602;55.670;37.578;2023-09-07T08:16:22;99927.09;;;14.01;61.01
35489;BME280;21602;55.670;37.578;2023-09-07T08:18:48;99938.81;;;14.12;61.54
35489;BME280;21602;55.670;37.578;2023-09-07T08:21:16;99930.47;;;14.25;61.28
35489;BME280;21602;55.670;37.578;2023-09-07T08:23:42;99929.56;;;14.37;60.77
35489;BME280;21602;55.670;37.578;2023-09-07T08:26:09;99933.03;;;14.49;60.60
35489;BME280;21602;55.670;37.578;2023-09-07T08:28:40;99927.88;;;14.64;60.22
35489;BME280;21602;55.670;37.578;2023-09-07T08:31:07;99925.88;;;14.76;59.73
35489;BME280;21602;55.670;37.578;2023-09-07T08:33:34;99926.47;;;14.78;59.14
35489;BME280;21602;55.670;37.578;2023-09-07T08:36:09;99922.16;;;14.77;59.20
35489;BME280;21602;55.670;37.578;2023-09-07T08:38:36;99925.88;;;14.93;59.78
35489;BME280;21602;55.670;37.578;2023-09-07T08:41:02;99924.13;;;15.04;58.93
35489;BME280;21602;55.670;37.578;2023-09-07T08:43:38;99941.41;;;15.08;57.86
35489;BME280;21602;55.670;37.578;2023-09-07T08:46:13;99927.97;;;15.08;57.64
35489;BME280;21602;55.670;37.578;2023-09-07T08:48:42;99922.16;;;15.16;57.42
35489;BME280;21602;55.670;37.578;2023-09-07T08:51:09;99912.59;;;15.25;57.38
35489;BME280;21602;55.670;37.578;2023-09-07T08:53:39;99915.88;;;15.32;57.51
35489;BME280;21602;55.670;37.578;2023-09-07T08:56:07;99913.25;;;15.37;57.95
35489;BME280;21602;55.670;37.578;2023-09-07T08:58:36;99908.13;;;15.36;56.52
35489;BME280;21602;55.670;37.578;2023-09-07T09:01:02;99916.22;;;15.36;57.23
35489;BME280;21602;55.670;37.578;2023-09-07T09:03:28;99920.28;;;15.39;56.58
35489;BME280;21602;55.670;37.578;2023-09-07T09:05:56;99926.53;;;15.22;55.84
35489;BME280;21602;55.670;37.578;2023-09-07T09:08:22;99925.97;;;15.20;54.90
35489;BME280;21602;55.670;37.578;2023-09-07T09:11:03;99925.19;;;15.03;53.85
35489;BME280;21602;55.670;37.578;2023-09-07T09:13:35;99910.56;;;14.94;53.83
35489;BME280;21602;55.670;37.578;2023-09-07T09:16:03;99917.47;;;15.06;53.16
35489;BME280;21602;55.670;37.578;2023-09-07T09:18:29;99920.22;;;15.33;52.52
35489;BME280;21602;55.670;37.578;2023-09-07T09:20:55;99931.72;;;15.51;51.21
35489;BME280;21602;55.670;37.578;2023-09-07T09:23:21;99921.00;;;15.56;52.34
35489;BME280;21602;55.670;37.578;2023-09-07T09:25:48;99927.91;;;15.47;52.38
35489;BME280;21602;55.670;37.578;2023-09-07T09:28:14;99920.28;;;15.39;52.24
35489;BME280;21602;55.670;37.578;2023-09-07T09:30:41;99917.59;;;15.39;52.91
35489;BME280;21602;55.670;37.578;2023-09-07T09:33:13;99932.22;;;15.48;52.62
35489;BME280;21602;55.670;37.578;2023-09-07T09:35:39;99941.19;;;15.53;51.40
35489;BME280;21602;55.670;37.578;2023-09-07T09:38:05;99932.47;;;15.46;50.76
35489;BME280;21602;55.670;37.578;2023-09-07T09:40:32;99915.03;;;15.49;51.14
35489;BME280;21602;55.670;37.578;2023-09-07T09:43:01;99926.59;;;15.49;51.28
35489;BME280;21602;55.670;37.578;2023-09-07T09:45:31;99921.13;;;15.66;51.49
35489;BME280;21602;55.670;37.578;2023-09-07T09:47:57;99910.50;;;15.76;51.19
35489;BME280;21602;55.670;37.578;2023-09-07T09:50:25;99921.91;;;15.88;50.62
35489;BME280;21602;55.670;37.578;2023-09-07T09:52:56;99920.94;;;16.00;48.90
35489;BME280;21602;55.670;37.578;2023-09-07T09:55:23;99909.88;;;15.96;49.58
35489;BME280;21602;55.670;37.578;2023-09-07T09:57:50;99909.28;;;16.21;49.49
35489;BME280;21602;55.670;37.578;2023-09-07T10:00:16;99916.59;;;16.26;47.61
35489;BME280;21602;55.670;37.578;2023-09-07T10:02:48;99900.81;;;16.07;47.79
35489;BME280;21602;55.670;37.578;2023-09-07T10:05:16;99914.16;;;15.92;48.21
35489;BME280;21602;55.670;37.578;2023-09-07T10:07:44;99917.19;;;16.01;48.62
35489;BME280;21602;55.670;37.578;2023-09-07T10:10:14;99905.44;;;16.12;47.95
35489;BME280;21602;55.670;37.578;2023-09-07T10:12:52;99898.94;;;16.08;47.74
35489;BME280;21602;55.670;37.578;2023-09-07T10:15:25;99911.63;;;16.12;47.37
35489;BME280;21602;55.670;37.578;2023-09-07T10:18:06;99901.09;;;16.06;47.34
35489;BME280;21602;55.670;37.578;2023-09-07T10:23:22;99901.75;;;16.23;47.39
35489;BME280;21602;55.670;37.578;2023-09-07T10:25:51;99905.84;;;16.26;47.73
35489;BME280;21602;55.670;37.578;2023-09-07T10:28:24;99916.59;;;16.26;47.78
35489;BME280;21602;55.670;37.578;2023-09-07T10:31:02;99907.72;;;16.25;47.50
35489;BME280;21602;55.670;37.578;2023-09-07T10:33:35;99907.63;;;16.15;47.12
35489;BME280;21602;55.670;37.578;2023-09-07T10:36:03;99916.41;;;16.00;47.36
35489;BME280;21602;55.670;37.578;2023-09-07T10:38:34;99916.44;;;15.78;47.83
35489;BME280;21602;55.670;37.578;2023-09-07T10:41:02;99919.84;;;15.69;48.06
35489;BME280;21602;55.670;37.578;2023-09-07T10:43:33;99911.22;;;15.67;48.62
35489;BME280;21602;55.670;37.578;2023-09-07T10:46:00;99885.69;;;15.74;48.56
35489;BME280;21602;55.670;37.578;2023-09-07T10:48:30;99896.84;;;15.83;48.36
35489;BME280;21602;55.670;37.578;2023-09-07T10:50:57;99884.31;;;15.99;48.07
35489;BME280;21602;55.670;37.578;2023-09-07T10:53:28;99904.09;;;16.09;47.77
35489;BME280;21602;55.670;37.578;2023-09-07T10:55:58;99894.25;;;16.25;46.53
35489;BME280;21602;55.670;37.578;2023-09-07T10:58:36;99906.47;;;16.38;46.52
35489;BME280;21602;55.670;37.578;2023-09-07T11:01:09;99905.91;;;16.36;45.82
35489;BME280;21602;55.670;37.578;2023-09-07T11:03:37;99917.19;;;16.33;45.78
35489;BME280;21602;55.670;37.578;2023-09-07T11:06:07;99896.50;;;16.38;46.31
35489;BME280;21602;55.670;37.578;2023-09-07T11:08:34;99912.72;;;16.44;46.41
35489;BME280;21602;55.670;37.578;2023-09-07T11:11:04;99896.56;;;16.49;46.29
35489;BME280;21602;55.670;37.578;2023-09-07T11:13:30;99902.00;;;16.54;46.06
35489;BME280;21602;55.670;37.578;2023-09-07T11:15:57;99895.34;;;16.67;46.52
35489;BME280;21602;55.670;37.578;2023-09-07T11:18:24;99892.22;;;16.80;46.04
35489;BME280;21602;55.670;37.578;2023-09-07T11:20:53;99908.69;;;16.83;45.67
35489;BME280;21602;55.670;37.578;2023-09-07T11:23:20;99903.28;;;16.83;45.52
35489;BME280;21602;55.670;37.578;2023-09-07T11:25:50;99903.59;;;16.87;45.06
35489;BME280;21602;55.670;37.578;2023-09-07T11:28:18;99895.00;;;16.95;45.27
35489;BME280;21602;55.670;37.578;2023-09-07T11:30:51;99888.88;;;17.10;45.11
35489;BME280;21602;55.670;37.578;2023-09-07T11:33:21;99899.13;;;17.13;44.79
35489;BME280;21602;55.670;37.578;2023-09-07T11:35:51;99896.94;;;17.00;45.48
35489;BME280;21602;55.670;37.578;2023-09-07T11:38:18;99897.72;;;16.95;45.33
35489;BME280;21602;55.670;37.578;2023-09-07T11:40:44;99891.94;;;16.76;45.60
35489;BME280;21602;55.670;37.578;2023-09-07T11:43:17;99891.88;;;16.71;45.81
35489;BME280;21602;55.670;37.578;2023-09-07T11:45:49;99877.84;;;16.69;46.52
35489;BME280;21602;55.670;37.578;2023-09-07T11:48:17;99880.59;;;16.74;46.66
35489;BME280;21602;55.670;37.578;2023-09-07T11:50:49;99888.16;;;16.77;46.79
35489;BME280;21602;55.670;37.578;2023-09-07T11:53:15;99885.34;;;16.62;46.39
35489;BME280;21602;55.670;37.578;2023-09-07T11:55:41;99907.34;;;16.49;47.21
35489;BME280;21602;55.670;37.578;2023-09-07T11:58:09;99892.94;;;16.33;47.43
35489;BME280;21602;55.670;37.578;2023-09-07T12:00:35;99896.97;;;16.30;47.57
35489;BME280;21602;55.670;37.578;2023-09-07T12:03:00;99891.94;;;16.39;47.78
35489;BME280;21602;55.670;37.578;2023-09-07T12:05:26;99890.06;;;16.45;46.57
35489;BME280;21602;55.670;37.578;2023-09-07T12:07:52;99882.53;;;16.47;46.16
35489;BME280;21602;55.670;37.578;2023-09-07T12:10:18;99883.88;;;16.44;46.00
35489;BME280;21602;55.670;37.578;2023-09-07T12:12:44;99895.47;;;16.45;45.43
35489;BME280;21602;55.670;37.578;2023-09-07T12:15:10;99874.22;;;16.48;45.40
35489;BME280;21602;55.670;37.578;2023-09-07T12:17:40;99882.56;;;16.52;45.26
35489;BME280;21602;55.670;37.578;2023-09-07T12:20:06;99887.31;;;16.34;45.64
35489;BME280;21602;55.670;37.578;2023-09-07T12:22:36;99885.84;;;16.22;46.09
35489;BME280;21602;55.670;37.578;2023-09-07T12:25:07;99877.00;;;16.26;45.99
35489;BME280;21602;55.670;37.578;2023-09-07T12:27:33;99883.81;;;16.34;45.41
35489;BME280;21602;55.670;37.578;2023-09-07T12:30:01;99879.78;;;16.36;44.80
35489;BME280;21602;55.670;37.578;2023-09-07T12:32:31;99878.44;;;16.34;44.02
35489;BME280;21602;55.670;37.578;2023-09-07T12:34:57;99874.00;;;16.23;43.61
35489;BME280;21602;55.670;37.578;2023-09-07T12:37:23;99878.56;;;16.17;44.22
35489;BME280;21602;55.670;37.578;2023-09-07T12:39:51;99880.91;;;16.08;43.80
35489;BME280;21602;55.670;37.578;2023-09-07T12:42:17;99875.72;;;16.02;44.21
35489;BME280;21602;55.670;37.578;2023-09-07T12:44:44;99882.28;;;16.11;44.32
35489;BME280;21602;55.670;37.578;2023-09-07T12:47:10;99883.44;;;16.20;44.30
35489;BME280;21602;55.670;37.578;2023-09-07T12:49:36;99873.84;;;16.34;44.60
35489;BME280;21602;55.670;37.578;2023-09-07T12:52:02;99873.97;;;16.55;44.24
35489;BME280;21602;55.670;37.578;2023-09-07T12:54:35;99869.53;;;16.76;44.38
35489;BME280;21602;55.670;37.578;2023-09-07T12:57:03;99870.44;;;16.92;43.91
35489;BME280;21602;55.670;37.578;2023-09-07T12:59:29;99869.19;;;17.14;44.19